Time;durP1;ratioP1;P1;durP2;ratioP2;P2;SDS_P1;SDS_P2;PMS_P1;PMS_P2;Temp;Humidity;BMP_temperature;BMP_pressure;BME280_temperature;BME280_humidity;BME280_pressure;Samples;Min_cycle;Max_cycle;Signal;HPM_P1;HPM_P2
2022/09/11 00:01:55;;;;;;;;;;;14.70;99.90;;;;;;4962487;28;19927;-68
2022/09/11 00:04:25;;;;;;;;;;;14.60;99.90;;;;;;4965934;28;19926;-68
2022/09/11 00:06:52;;;;;;;;;;;14.60;99.90;;;;;;4962159;28;19926;-68
2022/09/11 00:09:19;;;;;;;;;;;14.60;99.90;;;;;;4963807;28;19937;-69
2022/09/11 00:11:45;;;;;;;;;;;14.50;99.90;;;;;;4962280;28;19930;-69
2022/09/11 00:14:13;;;;;;;;;;;14.60;99.90;;;;;;4964120;28;19952;-69
2022/09/11 00:16:41;;;;;;;;;;;14.50;99.90;;;;;;4960801;28;19930;-69
2022/09/11 00:19:10;;;;;;;;;;;14.50;99.90;;;;;;4964868;28;19933;-70
2022/09/11 00:21:38;;;;;;;;;;;14.50;99.90;;;;;;4968179;28;20038;-69
2022/09/11 00:24:07;;;;;;;;;;;14.50;99.90;;;;;;4961481;28;20371;-70
2022/09/11 00:26:34;;;;;;;;;;;14.60;99.90;;;;;;4960689;28;20308;-69
2022/09/11 00:29:02;;;;;;;;;;;14.50;99.90;;;;;;4961647;28;19926;-69
2022/09/11 00:31:31;;;;;;;;;;;14.60;99.90;;;;;;4961626;28;19926;-69
2022/09/11 00:33:57;;;;;;;;;;;14.50;99.90;;;;;;4963393;28;19926;-69
2022/09/11 00:36:25;;;;;;;;;;;14.50;99.90;;;;;;4968814;28;19973;-69
2022/09/11 00:38:53;;;;;;;;;;;14.50;99.90;;;;;;4966135;28;19952;-69
2022/09/11 00:41:21;;;;;;;;;;;14.40;99.90;;;;;;4966593;28;19933;-69
2022/09/11 00:43:52;;;;;;;;;;;14.40;99.90;;;;;;4958313;28;19934;-69
2022/09/11 00:46:19;;;;;;;;;;;14.40;99.90;;;;;;4967877;28;19940;-69
2022/09/11 00:48:48;;;;;;;;;;;14.30;99.90;;;;;;4958162;28;20233;-67
2022/09/11 00:51:17;;;;;;;;;;;14.30;99.90;;;;;;4960304;28;20032;-67
2022/09/11 00:53:44;;;;;;;;;;;14.30;99.90;;;;;;4962213;28;19926;-68
2022/09/11 00:56:12;;;;;;;;;;;14.20;99.90;;;;;;4967090;28;19926;-68
2022/09/11 00:58:42;;;;;;;;;;;14.20;99.90;;;;;;4967654;28;19926;-68
2022/09/11 01:01:09;;;;;;;;;;;14.20;99.90;;;;;;4963776;28;20440;-68
2022/09/11 01:03:36;;;;;;;;;;;14.20;99.90;;;;;;4956152;28;19926;-68
2022/09/11 01:06:04;;;;;;;;;;;14.20;99.90;;;;;;4960806;28;19935;-68
2022/09/11 01:08:30;;;;;;;;;;;14.20;99.90;;;;;;4961200;28;19934;-68
2022/09/11 01:11:02;;;;;;;;;;;14.10;99.90;;;;;;4960250;28;19946;-68
2022/09/11 01:13:33;;;;;;;;;;;14.10;99.90;;;;;;4960440;28;19942;-67
2022/09/11 01:16:04;;;;;;;;;;;14.10;99.90;;;;;;4963724;28;19926;-67
2022/09/11 01:18:34;;;;;;;;;;;14.10;99.90;;;;;;4966470;28;20238;-68
2022/09/11 01:21:07;;;;;;;;;;;14.10;99.90;;;;;;4968363;28;19926;-68
2022/09/11 01:23:45;;;;;;;;;;;14.10;99.90;;;;;;4966558;28;19930;-68
2022/09/11 01:26:21;;;;;;;;;;;14.10;99.90;;;;;;4960108;28;20402;-68
2022/09/11 01:28:51;;;;;;;;;;;14.00;99.90;;;;;;4959007;28;19966;-68
2022/09/11 01:31:22;;;;;;;;;;;13.90;99.90;;;;;;4960760;28;19934;-69
2022/09/11 01:33:55;;;;;;;;;;;13.90;99.90;;;;;;4958571;28;19926;-68
2022/09/11 01:36:27;;;;;;;;;;;13.90;99.90;;;;;;4967152;28;20016;-69
2022/09/11 01:38:56;;;;;;;;;;;13.80;99.90;;;;;;4960118;28;22390;-69
2022/09/11 01:41:26;;;;;;;;;;;13.80;99.90;;;;;;4961138;28;19934;-69
2022/09/11 01:43:56;;;;;;;;;;;13.80;99.90;;;;;;4960333;28;19930;-69
2022/09/11 01:46:24;;;;;;;;;;;13.80;99.90;;;;;;4958006;28;19931;-69
2022/09/11 01:48:54;;;;;;;;;;;13.80;99.90;;;;;;4964296;28;19933;-68
2022/09/11 01:51:22;;;;;;;;;;;13.80;99.90;;;;;;4966562;28;19937;-69
2022/09/11 01:53:50;;;;;;;;;;;13.80;99.90;;;;;;4966273;28;19926;-69
2022/09/11 01:56:21;;;;;;;;;;;13.80;99.90;;;;;;4962187;28;19937;-68
2022/09/11 01:58:48;;;;;;;;;;;13.80;99.90;;;;;;4966802;28;19926;-69
2022/09/11 02:01:19;;;;;;;;;;;13.80;99.90;;;;;;4958202;28;19974;-68
2022/09/11 02:03:49;;;;;;;;;;;13.70;99.90;;;;;;4959338;28;19934;-68
2022/09/11 02:06:17;;;;;;;;;;;13.70;99.90;;;;;;4957718;28;19936;-68
2022/09/11 02:08:47;;;;;;;;;;;13.70;99.90;;;;;;4961543;28;19927;-68
2022/09/11 02:11:15;;;;;;;;;;;13.70;99.90;;;;;;4958971;28;19934;-68
2022/09/11 02:13:44;;;;;;;;;;;13.70;99.90;;;;;;4961984;28;19926;-68
2022/09/11 02:16:15;;;;;;;;;;;13.70;99.90;;;;;;4966876;28;20190;-68
2022/09/11 02:18:47;;;;;;;;;;;13.70;99.90;;;;;;4958775;28;20339;-68
2022/09/11 02:21:13;;;;;;;;;;;13.70;99.90;;;;;;4960884;28;19936;-69
2022/09/11 02:23:41;;;;;;;;;;;13.70;99.90;;;;;;4959786;28;19942;-67
2022/09/11 02:26:09;;;;;;;;;;;13.70;99.90;;;;;;4959773;28;19942;-67
2022/09/11 02:28:36;;;;;;;;;;;13.70;99.90;;;;;;4960568;28;19934;-68
2022/09/11 02:31:03;;;;;;;;;;;13.70;99.90;;;;;;4957112;28;19926;-69
2022/09/11 02:33:31;;;;;;;;;;;13.70;99.90;;;;;;4960233;28;19944;-69
2022/09/11 02:36:03;;;;;;;;;;;13.60;99.90;;;;;;4961845;28;20292;-69
2022/09/11 02:38:33;;;;;;;;;;;13.60;99.90;;;;;;4966595;28;20008;-69
2022/09/11 02:41:02;;;;;;;;;;;13.50;99.90;;;;;;4967385;28;19926;-69
2022/09/11 02:43:38;;;;;;;;;;;13.50;99.90;;;;;;4966750;28;20013;-69
2022/09/11 02:46:18;;;;;;;;;;;13.50;99.90;;;;;;4962060;28;19953;-69
2022/09/11 02:48:50;;;;;;;;;;;13.50;99.90;;;;;;4960435;28;19926;-69
2022/09/11 02:51:22;;;;;;;;;;;13.40;99.90;;;;;;4963554;28;20385;-69
2022/09/11 02:53:53;;;;;;;;;;;13.40;99.90;;;;;;4964087;28;19926;-69
2022/09/11 02:56:23;;;;;;;;;;;13.40;99.90;;;;;;4969553;28;19940;-69
2022/09/11 02:58:54;;;;;;;;;;;13.40;99.90;;;;;;4964298;28;19933;-69
2022/09/11 03:01:21;;;;;;;;;;;13.30;99.90;;;;;;4969397;28;19934;-69
2022/09/11 03:03:47;;;;;;;;;;;13.40;99.90;;;;;;4964319;28;19926;-69
2022/09/11 03:06:15;;;;;;;;;;;13.40;99.90;;;;;;4964209;28;20623;-69
2022/09/11 03:08:44;;;;;;;;;;;13.30;99.90;;;;;;4963284;28;20297;-69
2022/09/11 03:11:14;;;;;;;;;;;13.30;99.90;;;;;;4973730;28;19927;-69
2022/09/11 03:13:40;;;;;;;;;;;13.30;99.90;;;;;;4962762;28;19983;-69
2022/09/11 03:16:07;;;;;;;;;;;13.30;99.90;;;;;;4965256;28;19933;-69
2022/09/11 03:18:34;;;;;;;;;;;13.30;99.90;;;;;;4964977;28;19937;-69
2022/09/11 03:21:02;;;;;;;;;;;13.20;99.90;;;;;;4967897;28;20292;-69
2022/09/11 03:23:29;;;;;;;;;;;13.20;99.90;;;;;;4965366;28;19938;-68
2022/09/11 03:25:57;;;;;;;;;;;13.20;99.90;;;;;;4968410;28;20025;-68
2022/09/11 03:28:24;;;;;;;;;;;13.20;99.90;;;;;;4968693;28;19977;-68
2022/09/11 03:30:51;;;;;;;;;;;13.20;99.90;;;;;;4967138;28;19927;-68
2022/09/11 03:33:18;;;;;;;;;;;13.20;99.90;;;;;;4963614;28;19926;-69
2022/09/11 03:35:45;;;;;;;;;;;13.20;99.90;;;;;;4961442;28;19930;-69
2022/09/11 03:38:11;;;;;;;;;;;13.20;99.90;;;;;;4964151;28;19933;-69
2022/09/11 03:40:38;;;;;;;;;;;13.10;99.90;;;;;;4966210;28;20004;-68
2022/09/11 03:43:06;;;;;;;;;;;13.10;99.90;;;;;;4960268;28;20016;-68
2022/09/11 03:45:33;;;;;;;;;;;13.10;99.90;;;;;;4959996;28;20373;-69
2022/09/11 03:48:00;;;;;;;;;;;13.10;99.90;;;;;;4961767;28;19930;-68
2022/09/11 03:50:26;;;;;;;;;;;13.10;99.90;;;;;;4961435;28;19930;-68
2022/09/11 03:52:53;;;;;;;;;;;13.10;99.90;;;;;;4965861;28;20373;-68
2022/09/11 03:55:22;;;;;;;;;;;13.00;99.90;;;;;;4960493;28;20422;-68
2022/09/11 03:57:49;;;;;;;;;;;13.00;99.90;;;;;;4963855;28;19934;-68
2022/09/11 04:00:17;;;;;;;;;;;13.00;99.90;;;;;;4966035;28;19926;-68
2022/09/11 04:02:44;;;;;;;;;;;13.00;99.90;;;;;;4962603;28;19934;-68
2022/09/11 04:05:10;;;;;;;;;;;12.90;99.90;;;;;;4969090;28;20029;-68
2022/09/11 04:07:37;;;;;;;;;;;12.90;99.90;;;;;;4968103;28;19926;-68
2022/09/11 04:10:04;;;;;;;;;;;12.90;99.90;;;;;;4968255;28;20017;-68
2022/09/11 04:12:30;;;;;;;;;;;12.90;99.90;;;;;;4965910;28;19925;-68
2022/09/11 04:14:57;;;;;;;;;;;12.90;99.90;;;;;;4969468;28;20401;-68
2022/09/11 04:17:25;;;;;;;;;;;12.90;99.90;;;;;;4969518;28;20389;-69
2022/09/11 04:19:52;;;;;;;;;;;12.80;99.90;;;;;;4967479;28;19926;-69
2022/09/11 04:22:19;;;;;;;;;;;12.80;99.90;;;;;;4966549;28;20393;-69
2022/09/11 04:24:45;;;;;;;;;;;12.80;99.90;;;;;;4965913;28;19926;-69
2022/09/11 04:27:12;;;;;;;;;;;12.70;99.90;;;;;;4960574;28;19933;-69
2022/09/11 04:29:39;;;;;;;;;;;12.70;99.90;;;;;;4974888;28;19933;-69
2022/09/11 04:32:06;;;;;;;;;;;12.70;99.90;;;;;;4960296;28;20319;-70
2022/09/11 04:34:34;;;;;;;;;;;12.70;99.90;;;;;;4960914;28;20274;-69
2022/09/11 04:37:02;;;;;;;;;;;12.70;99.90;;;;;;4961813;28;20381;-69
2022/09/11 04:39:29;;;;;;;;;;;12.70;99.90;;;;;;4966393;28;20309;-69
2022/09/11 04:41:56;;;;;;;;;;;12.70;99.90;;;;;;4962341;28;19950;-69
2022/09/11 04:44:25;;;;;;;;;;;12.70;99.90;;;;;;4965417;28;19973;-69
2022/09/11 04:46:51;;;;;;;;;;;12.70;99.90;;;;;;4962315;28;19937;-69
2022/09/11 04:49:18;;;;;;;;;;;12.70;99.90;;;;;;4966279;28;19937;-69
2022/09/11 04:51:46;;;;;;;;;;;12.70;99.90;;;;;;4966876;28;20605;-69
2022/09/11 04:54:14;;;;;;;;;;;12.70;99.90;;;;;;4963996;28;19934;-70
2022/09/11 04:56:40;;;;;;;;;;;12.70;99.90;;;;;;4961661;28;20010;-69
2022/09/11 04:59:12;;;;;;;;;;;12.70;99.90;;;;;;4960058;28;19932;-69
2022/09/11 05:01:39;;;;;;;;;;;12.70;99.90;;;;;;4962334;28;19927;-69
2022/09/11 05:04:07;;;;;;;;;;;12.60;99.90;;;;;;4961012;28;19930;-69
2022/09/11 05:06:33;;;;;;;;;;;12.70;99.90;;;;;;4960025;28;19926;-69
2022/09/11 05:09:03;;;;;;;;;;;12.60;99.90;;;;;;4961730;28;19926;-69
2022/09/11 05:11:30;;;;;;;;;;;12.70;99.90;;;;;;4962612;28;19977;-69
2022/09/11 05:13:58;;;;;;;;;;;12.70;99.90;;;;;;4964977;28;19926;-69
2022/09/11 05:16:27;;;;;;;;;;;12.80;99.90;;;;;;4962432;28;20389;-69
2022/09/11 05:18:54;;;;;;;;;;;12.80;99.90;;;;;;4966254;28;20366;-69
2022/09/11 05:21:23;;;;;;;;;;;12.80;99.90;;;;;;4962701;28;19930;-69
2022/09/11 05:23:50;;;;;;;;;;;12.80;99.90;;;;;;4964596;28;19991;-69
2022/09/11 05:26:19;;;;;;;;;;;12.80;99.90;;;;;;4966081;28;19930;-69
2022/09/11 05:28:46;;;;;;;;;;;12.90;99.90;;;;;;4959784;28;19932;-69
2022/09/11 05:31:14;;;;;;;;;;;12.90;99.90;;;;;;4961905;28;19933;-69
2022/09/11 05:33:41;;;;;;;;;;;12.90;99.90;;;;;;4963598;28;19999;-68
2022/09/11 05:36:08;;;;;;;;;;;13.00;99.90;;;;;;4962297;28;20365;-69
2022/09/11 05:38:35;;;;;;;;;;;13.00;99.90;;;;;;4968694;28;19931;-69
2022/09/11 05:41:04;;;;;;;;;;;12.90;99.90;;;;;;4962633;28;21299;-68
2022/09/11 05:43:33;;;;;;;;;;;12.90;99.90;;;;;;4961300;28;19927;-70
2022/09/11 05:45:59;;;;;;;;;;;12.90;99.90;;;;;;4962861;28;19930;-68
2022/09/11 05:48:28;;;;;;;;;;;12.90;99.90;;;;;;4963210;28;19927;-69
2022/09/11 05:50:55;;;;;;;;;;;13.00;99.90;;;;;;4965482;28;20456;-69
2022/09/11 05:53:22;;;;;;;;;;;13.00;99.90;;;;;;4962511;28;20022;-69
2022/09/11 05:55:50;;;;;;;;;;;13.00;99.90;;;;;;4963187;28;19926;-69
2022/09/11 05:58:17;;;;;;;;;;;13.10;99.90;;;;;;4957000;28;22117;-69
2022/09/11 06:00:45;;;;;;;;;;;13.20;99.90;;;;;;4960751;28;20384;-68
2022/09/11 06:03:12;;;;;;;;;;;13.20;99.90;;;;;;4958666;28;20341;-69
2022/09/11 06:05:39;;;;;;;;;;;13.20;99.90;;;;;;4959058;28;19934;-69
2022/09/11 06:08:06;;;;;;;;;;;13.30;99.90;;;;;;4958486;28;19930;-69
2022/09/11 06:10:33;;;;;;;;;;;13.30;99.90;;;;;;4968756;28;20013;-68
2022/09/11 06:12:59;;;;;;;;;;;13.40;99.90;;;;;;4965976;28;20167;-68
2022/09/11 06:15:26;;;;;;;;;;;13.50;99.90;;;;;;4963790;28;19926;-69
2022/09/11 06:17:54;;;;;;;;;;;13.50;99.90;;;;;;4964867;28;20380;-69
2022/09/11 06:20:21;;;;;;;;;;;13.60;99.90;;;;;;4963115;28;19933;-69
2022/09/11 06:22:48;;;;;;;;;;;13.50;99.90;;;;;;4962886;28;19926;-70
2022/09/11 06:25:14;;;;;;;;;;;13.60;99.90;;;;;;4963448;28;20746;-69
2022/09/11 06:27:41;;;;;;;;;;;13.80;99.90;;;;;;4958813;28;19933;-70
2022/09/11 06:30:08;;;;;;;;;;;13.90;99.90;;;;;;4969337;28;20368;-69
2022/09/11 06:32:35;;;;;;;;;;;13.90;99.90;;;;;;4964400;28;19926;-69
2022/09/11 06:35:03;;;;;;;;;;;13.90;99.90;;;;;;4963662;28;20648;-69
2022/09/11 06:37:30;;;;;;;;;;;14.10;99.90;;;;;;4962405;28;20017;-69
2022/09/11 06:39:56;;;;;;;;;;;14.20;99.90;;;;;;4961749;28;20033;-69
2022/09/11 06:42:23;;;;;;;;;;;14.20;99.90;;;;;;4961411;28;20339;-69
2022/09/11 06:44:50;;;;;;;;;;;14.20;99.90;;;;;;4961931;28;19926;-69
2022/09/11 06:47:17;;;;;;;;;;;14.30;99.90;;;;;;4965697;28;20028;-69
2022/09/11 06:49:44;;;;;;;;;;;14.60;99.90;;;;;;4970016;28;20039;-69
2022/09/11 06:52:12;;;;;;;;;;;14.80;99.90;;;;;;4969779;28;19954;-67
2022/09/11 06:54:39;;;;;;;;;;;15.00;99.90;;;;;;4969849;28;19926;-69
2022/09/11 06:57:05;;;;;;;;;;;15.00;99.90;;;;;;4970883;28;19930;-67
2022/09/11 06:59:32;;;;;;;;;;;14.70;99.90;;;;;;4970697;28;19934;-69
2022/09/11 07:01:59;;;;;;;;;;;14.70;99.90;;;;;;4970551;28;19934;-68
2022/09/11 07:04:27;;;;;;;;;;;14.80;99.90;;;;;;4970994;28;19926;-68
2022/09/11 07:06:54;;;;;;;;;;;15.10;99.90;;;;;;4969258;28;20388;-69
2022/09/11 07:09:22;;;;;;;;;;;15.40;99.90;;;;;;4971673;28;20304;-68
2022/09/11 07:11:48;;;;;;;;;;;15.60;99.90;;;;;;4970583;28;19933;-68
2022/09/11 07:14:20;;;;;;;;;;;15.80;99.90;;;;;;4971882;28;19934;-69
2022/09/11 07:16:48;;;;;;;;;;;15.80;99.90;;;;;;5021053;28;19935;-69
2022/09/11 07:19:17;;;;;;;;;;;15.90;99.90;;;;;;4985989;28;19930;-69
2022/09/11 07:21:43;;;;;;;;;;;15.90;99.90;;;;;;4966417;28;20386;-69
2022/09/11 07:24:10;;;;;;;;;;;15.90;99.90;;;;;;4964575;28;20369;-69
2022/09/11 07:26:38;;;;;;;;;;;15.90;99.90;;;;;;4969602;28;20476;-69
2022/09/11 07:29:05;;;;;;;;;;;16.10;99.90;;;;;;4965660;28;19983;-68
2022/09/11 07:31:33;;;;;;;;;;;16.30;99.90;;;;;;4963693;28;20430;-68
2022/09/11 07:34:00;;;;;;;;;;;16.60;99.90;;;;;;4964784;28;20023;-68
2022/09/11 07:36:28;;;;;;;;;;;16.60;99.90;;;;;;4968657;28;20369;-69
2022/09/11 07:38:56;;;;;;;;;;;16.80;99.90;;;;;;4965258;28;19934;-67
2022/09/11 07:41:23;;;;;;;;;;;17.00;99.90;;;;;;4969473;28;19930;-67
2022/09/11 07:43:53;;;;;;;;;;;17.80;99.90;;;;;;4971026;28;19926;-67
2022/09/11 07:46:20;;;;;;;;;;;18.70;99.90;;;;;;4991409;28;20291;-69
2022/09/11 07:48:47;;;;;;;;;;;19.40;99.90;;;;;;5004985;28;19969;-69
2022/09/11 07:51:14;;;;;;;;;;;19.90;99.90;;;;;;4969655;28;19960;-69
2022/09/11 07:53:42;;;;;;;;;;;20.10;99.90;;;;;;4961093;28;20403;-69
2022/09/11 07:56:10;;;;;;;;;;;20.20;99.90;;;;;;4967921;28;19926;-68
2022/09/11 07:58:37;;;;;;;;;;;20.20;99.90;;;;;;4967033;28;20023;-68
2022/09/11 08:01:06;;;;;;;;;;;20.00;99.90;;;;;;4968997;28;19926;-68
2022/09/11 08:03:33;;;;;;;;;;;19.70;99.90;;;;;;4967976;28;20312;-67
2022/09/11 08:06:00;;;;;;;;;;;20.40;99.90;;;;;;4968994;28;19936;-68
2022/09/11 08:08:28;;;;;;;;;;;22.10;99.90;;;;;;4968692;28;19934;-68
2022/09/11 08:10:55;;;;;;;;;;;23.50;99.90;;;;;;4967314;28;21286;-67
2022/09/11 08:13:21;;;;;;;;;;;23.30;99.90;;;;;;4964653;28;19933;-68
2022/09/11 08:15:49;;;;;;;;;;;22.60;99.90;;;;;;4965513;28;19930;-68
2022/09/11 08:18:17;;;;;;;;;;;22.60;99.90;;;;;;4960535;28;19934;-68
2022/09/11 08:20:44;;;;;;;;;;;25.10;99.90;;;;;;4963677;28;19941;-68
2022/09/11 08:23:11;;;;;;;;;;;26.00;99.60;;;;;;4962996;28;19926;-68
2022/09/11 08:25:38;;;;;;;;;;;27.10;95.60;;;;;;4961676;28;19926;-68
2022/09/11 08:28:04;;;;;;;;;;;24.70;99.00;;;;;;4962722;28;19927;-68
2022/09/11 08:30:32;;;;;;;;;;;23.60;99.90;;;;;;4962566;28;20409;-68
2022/09/11 08:33:00;;;;;;;;;;;24.60;99.90;;;;;;4958989;28;19926;-68
2022/09/11 08:35:28;;;;;;;;;;;22.80;99.90;;;;;;4959862;28;19938;-68
2022/09/11 08:37:55;;;;;;;;;;;23.80;99.90;;;;;;4964063;28;20018;-68
2022/09/11 08:40:21;;;;;;;;;;;25.10;99.90;;;;;;4961298;28;19973;-69
2022/09/11 08:42:48;;;;;;;;;;;26.00;99.00;;;;;;4961298;28;19932;-69
2022/09/11 08:45:16;;;;;;;;;;;25.40;98.90;;;;;;4964006;28;19956;-69
2022/09/11 08:47:46;;;;;;;;;;;26.60;96.30;;;;;;4961408;28;19949;-69
2022/09/11 08:50:17;;;;;;;;;;;27.80;95.70;;;;;;4965683;28;19940;-70
2022/09/11 08:52:47;;;;;;;;;;;28.60;91.70;;;;;;4962567;28;21601;-69
2022/09/11 08:55:15;;;;;;;;;;;28.30;90.70;;;;;;4963842;28;19942;-69
2022/09/11 08:57:45;;;;;;;;;;;28.50;90.50;;;;;;4962145;28;19926;-70
2022/09/11 09:00:16;;;;;;;;;;;28.50;89.90;;;;;;4959612;28;19944;-69
2022/09/11 09:02:53;;;;;;;;;;;28.30;88.70;;;;;;4957892;28;19927;-70
2022/09/11 09:05:25;;;;;;;;;;;26.70;91.80;;;;;;4962582;28;20369;-67
2022/09/11 09:08:01;;;;;;;;;;;25.30;98.60;;;;;;4962719;28;19929;-67
2022/09/11 09:10:34;;;;;;;;;;;24.30;98.90;;;;;;4962167;28;19927;-69
2022/09/11 09:13:09;;;;;;;;;;;23.40;99.90;;;;;;4959952;28;19953;-69
2022/09/11 09:15:41;;;;;;;;;;;22.20;99.90;;;;;;4959766;28;20005;-69
2022/09/11 09:18:10;;;;;;;;;;;21.80;99.90;;;;;;4960364;28;20463;-69
2022/09/11 09:20:38;;;;;;;;;;;21.80;99.90;;;;;;4955698;28;20021;-69
2022/09/11 09:23:11;;;;;;;;;;;21.20;99.90;;;;;;4958389;28;20020;-69
2022/09/11 09:25:39;;;;;;;;;;;20.90;99.90;;;;;;4960550;28;19934;-69
2022/09/11 09:28:08;;;;;;;;;;;21.00;99.90;;;;;;4956751;28;19961;-69
2022/09/11 09:30:40;;;;;;;;;;;21.20;99.90;;;;;;4962665;28;20385;-69
2022/09/11 09:33:26;;;;;;;;;;;21.40;99.90;;;;;;4960558;28;19933;-69
2022/09/11 09:35:54;;;;;;;;;;;21.30;99.90;;;;;;4960813;28;20351;-69
2022/09/11 09:38:24;;;;;;;;;;;21.10;99.90;;;;;;4963422;28;19926;-69
2022/09/11 09:40:54;;;;;;;;;;;21.20;99.90;;;;;;4959866;28;20404;-68
2022/09/11 09:43:27;;;;;;;;;;;21.10;99.90;;;;;;4968693;28;19933;-69
2022/09/11 09:46:03;;;;;;;;;;;21.00;99.90;;;;;;4958804;28;20245;-69
2022/09/11 09:48:32;;;;;;;;;;;20.80;99.90;;;;;;4961917;28;20405;-69
2022/09/11 09:50:59;;;;;;;;;;;20.70;99.90;;;;;;4968246;28;19930;-68
2022/09/11 09:53:31;;;;;;;;;;;21.00;99.90;;;;;;4960852;28;19934;-68
2022/09/11 09:55:58;;;;;;;;;;;22.10;99.90;;;;;;4958910;28;20427;-68
2022/09/11 09:58:26;;;;;;;;;;;23.20;99.90;;;;;;4966516;28;19940;-69
2022/09/11 10:00:53;;;;;;;;;;;23.10;99.90;;;;;;4964637;28;20327;-69
2022/09/11 10:03:21;;;;;;;;;;;23.10;99.90;;;;;;4965417;28;19930;-70
2022/09/11 10:05:48;;;;;;;;;;;23.00;99.90;;;;;;4964017;28;20029;-69
2022/09/11 10:08:33;;;;;;;;;;;23.10;99.90;;;;;;4967138;28;20320;-68
2022/09/11 10:11:02;;;;;;;;;;;22.70;99.90;;;;;;4968428;28;19948;-69
2022/09/11 10:13:31;;;;;;;;;;;20.70;99.90;;;;;;4967419;28;19977;-69
2022/09/11 10:15:59;;;;;;;;;;;20.10;99.90;;;;;;4969272;28;19956;-71
2022/09/11 10:18:36;;;;;;;;;;;20.00;99.90;;;;;;4966693;28;19934;-68
2022/09/11 10:21:24;;;;;;;;;;;20.00;99.90;;;;;;4965570;28;19969;-69
2022/09/11 10:23:53;;;;;;;;;;;20.20;99.90;;;;;;4959626;28;19972;-68
2022/09/11 10:26:24;;;;;;;;;;;20.70;99.90;;;;;;4964974;28;20025;-68
2022/09/11 10:28:51;;;;;;;;;;;21.30;99.90;;;;;;4963165;28;19933;-70
2022/09/11 10:31:19;;;;;;;;;;;20.90;99.90;;;;;;4963129;28;19930;-68
2022/09/11 10:33:47;;;;;;;;;;;20.40;99.90;;;;;;4962456;28;19981;-70
2022/09/11 10:36:21;;;;;;;;;;;20.60;99.90;;;;;;4959127;28;20016;-68
2022/09/11 10:38:48;;;;;;;;;;;20.30;99.90;;;;;;4960655;28;20477;-68
2022/09/11 10:41:17;;;;;;;;;;;20.20;99.90;;;;;;4961343;28;20685;-67
2022/09/11 10:43:51;;;;;;;;;;;20.30;99.90;;;;;;4961822;28;19926;-69
2022/09/11 10:46:27;;;;;;;;;;;20.30;99.90;;;;;;4962651;28;20087;-68
2022/09/11 10:48:54;;;;;;;;;;;20.10;99.90;;;;;;4963607;28;20033;-69
2022/09/11 10:51:21;;;;;;;;;;;20.00;99.90;;;;;;4964001;28;19926;-69
2022/09/11 10:53:59;;;;;;;;;;;19.90;99.90;;;;;;4959810;28;20428;-68
2022/09/11 10:56:26;;;;;;;;;;;19.90;99.90;;;;;;4956620;28;19934;-68
2022/09/11 10:58:56;;;;;;;;;;;19.90;99.90;;;;;;4963279;28;19941;-68
2022/09/11 11:01:23;;;;;;;;;;;19.90;99.90;;;;;;4964732;28;20013;-70
2022/09/11 11:03:50;;;;;;;;;;;20.00;99.90;;;;;;4967020;28;20063;-69
2022/09/11 11:06:22;;;;;;;;;;;19.70;99.90;;;;;;4969280;28;19926;-69
2022/09/11 11:09:06;;;;;;;;;;;19.60;99.90;;;;;;4968861;28;19926;-68
2022/09/11 11:11:41;;;;;;;;;;;19.60;99.90;;;;;;4967897;28;20385;-68
2022/09/11 11:14:22;;;;;;;;;;;19.60;99.90;;;;;;4966051;28;19926;-69
2022/09/11 11:16:56;;;;;;;;;;;19.90;99.90;;;;;;4963361;28;20030;-69
2022/09/11 11:19:35;;;;;;;;;;;20.00;99.90;;;;;;4964255;28;20036;-68
2022/09/11 11:22:07;;;;;;;;;;;20.20;99.90;;;;;;4966738;28;19940;-69
2022/09/11 11:24:46;;;;;;;;;;;20.40;99.90;;;;;;4965303;28;19938;-69
2022/09/11 11:27:33;;;;;;;;;;;20.60;99.90;;;;;;4965883;28;19927;-69
2022/09/11 11:30:05;;;;;;;;;;;20.40;99.90;;;;;;4959200;28;19953;-69
2022/09/11 11:32:52;;;;;;;;;;;20.40;99.90;;;;;;4964336;28;20385;-69
2022/09/11 11:35:25;;;;;;;;;;;20.70;99.90;;;;;;4959170;28;19930;-68
2022/09/11 11:37:55;;;;;;;;;;;20.70;99.90;;;;;;4961048;28;20043;-68
2022/09/11 11:40:26;;;;;;;;;;;20.80;99.90;;;;;;4962227;28;20015;-69
2022/09/11 11:42:55;;;;;;;;;;;20.90;99.90;;;;;;4963175;28;20037;-68
2022/09/11 11:45:23;;;;;;;;;;;20.90;99.90;;;;;;4966131;28;19949;-69
2022/09/11 11:47:51;;;;;;;;;;;20.80;99.90;;;;;;4963486;28;20004;-69
2022/09/11 11:50:23;;;;;;;;;;;20.70;99.90;;;;;;4961849;28;20038;-69
2022/09/11 11:52:56;;;;;;;;;;;20.90;99.90;;;;;;4961105;28;19926;-69
2022/09/11 11:55:24;;;;;;;;;;;21.20;99.90;;;;;;4964484;28;20389;-69
2022/09/11 11:57:57;;;;;;;;;;;21.00;99.90;;;;;;4968984;28;19937;-68
2022/09/11 12:00:25;;;;;;;;;;;21.40;99.90;;;;;;4967485;28;19927;-68
2022/09/11 12:02:53;;;;;;;;;;;21.40;99.90;;;;;;4968958;28;19930;-68
2022/09/11 12:05:23;;;;;;;;;;;21.80;99.90;;;;;;4969577;28;19973;-68
2022/09/11 12:07:50;;;;;;;;;;;22.20;99.90;;;;;;4967936;28;19925;-68
2022/09/11 12:10:22;;;;;;;;;;;22.10;99.90;;;;;;4966243;28;19926;-68
2022/09/11 12:12:52;;;;;;;;;;;22.00;99.90;;;;;;4964385;28;20334;-69
2022/09/11 12:15:20;;;;;;;;;;;21.80;99.90;;;;;;4965882;28;19930;-69
2022/09/11 12:17:48;;;;;;;;;;;21.60;99.90;;;;;;4958901;28;19948;-70
2022/09/11 12:20:35;;;;;;;;;;;21.50;99.90;;;;;;4961608;28;20318;-69
2022/09/11 12:23:03;;;;;;;;;;;21.20;99.90;;;;;;4963095;28;19953;-69
2022/09/11 12:25:50;;;;;;;;;;;21.30;99.90;;;;;;4965546;28;19926;-69
2022/09/11 12:28:21;;;;;;;;;;;21.40;99.90;;;;;;4962664;28;20454;-69
2022/09/11 12:30:56;;;;;;;;;;;21.50;99.90;;;;;;4962679;28;20389;-69
2022/09/11 12:33:43;;;;;;;;;;;21.70;99.90;;;;;;4967897;28;20401;-68
2022/09/11 12:36:10;;;;;;;;;;;22.00;99.90;;;;;;4960581;28;19926;-68
2022/09/11 12:38:39;;;;;;;;;;;22.00;99.90;;;;;;4967727;28;20385;-68
2022/09/11 12:41:12;;;;;;;;;;;22.20;99.90;;;;;;4964029;28;20396;-69
2022/09/11 12:43:46;;;;;;;;;;;22.40;99.90;;;;;;4962423;28;20021;-69
2022/09/11 12:46:34;;;;;;;;;;;22.70;99.90;;;;;;4961393;28;19930;-68
2022/09/11 12:49:07;;;;;;;;;;;22.80;99.90;;;;;;4962437;28;20331;-68
2022/09/11 12:51:35;;;;;;;;;;;23.00;99.50;;;;;;4960699;28;19934;-69
2022/09/11 12:54:03;;;;;;;;;;;23.00;98.70;;;;;;4964278;28;20073;-68
2022/09/11 12:56:33;;;;;;;;;;;23.00;98.60;;;;;;4963453;28;20756;-68
2022/09/11 12:59:03;;;;;;;;;;;22.90;99.10;;;;;;4970027;28;20304;-68
2022/09/11 13:01:31;;;;;;;;;;;23.20;99.90;;;;;;4970368;28;19934;-69
2022/09/11 13:03:59;;;;;;;;;;;23.20;97.80;;;;;;4969699;28;19952;-68
2022/09/11 13:06:36;;;;;;;;;;;23.20;97.60;;;;;;4968521;28;19926;-69
2022/09/11 13:09:04;;;;;;;;;;;23.00;98.40;;;;;;4967007;28;19926;-68
2022/09/11 13:11:40;;;;;;;;;;;23.10;98.30;;;;;;4969338;28;19926;-69
2022/09/11 13:14:23;;;;;;;;;;;22.90;99.20;;;;;;4968121;28;19940;-69
2022/09/11 13:16:51;;;;;;;;;;;22.10;99.50;;;;;;4967005;28;19972;-70
2022/09/11 13:19:19;;;;;;;;;;;22.10;98.90;;;;;;4967568;28;20339;-69
2022/09/11 13:21:48;;;;;;;;;;;22.10;99.80;;;;;;4968329;28;20017;-69
2022/09/11 13:24:22;;;;;;;;;;;22.30;99.90;;;;;;4968741;28;20039;-68
2022/09/11 13:26:54;;;;;;;;;;;22.30;99.90;;;;;;4968593;28;20009;-69
2022/09/11 13:29:22;;;;;;;;;;;22.60;99.40;;;;;;4972403;28;20016;-69
2022/09/11 13:31:48;;;;;;;;;;;22.80;98.00;;;;;;4968482;28;20028;-70
2022/09/11 13:34:17;;;;;;;;;;;22.70;98.50;;;;;;4968752;28;19957;-73
2022/09/11 13:36:46;;;;;;;;;;;22.80;97.80;;;;;;4967373;28;19932;-70
2022/09/11 13:39:14;;;;;;;;;;;22.50;98.20;;;;;;4970076;28;19926;-69
2022/09/11 13:41:43;;;;;;;;;;;22.00;98.30;;;;;;4968844;28;20273;-69
2022/09/11 13:44:13;;;;;;;;;;;22.10;98.80;;;;;;4969824;28;19926;-68
2022/09/11 13:46:49;;;;;;;;;;;22.40;98.10;;;;;;4967821;28;20222;-69
2022/09/11 13:49:24;;;;;;;;;;;21.90;99.10;;;;;;4959167;28;20262;-68
2022/09/11 13:51:51;;;;;;;;;;;22.20;99.00;;;;;;4967459;28;19926;-69
2022/09/11 13:54:25;;;;;;;;;;;22.40;99.10;;;;;;4968099;28;19926;-69
2022/09/11 13:57:10;;;;;;;;;;;22.50;97.80;;;;;;4967589;28;19942;-66
2022/09/11 13:59:40;;;;;;;;;;;22.50;98.10;;;;;;4967836;28;19926;-67
2022/09/11 14:02:16;;;;;;;;;;;22.50;97.90;;;;;;4965521;28;19969;-67
2022/09/11 14:04:44;;;;;;;;;;;22.80;97.60;;;;;;4968512;28;19933;-67
2022/09/11 14:07:18;;;;;;;;;;;23.10;96.20;;;;;;4965425;28;20390;-67
2022/09/11 14:09:50;;;;;;;;;;;23.20;95.90;;;;;;4969528;28;19926;-68
2022/09/11 14:12:19;;;;;;;;;;;22.80;95.60;;;;;;4966780;28;19926;-68
2022/09/11 14:14:51;;;;;;;;;;;22.50;96.00;;;;;;4966403;28;20019;-68
2022/09/11 14:17:17;;;;;;;;;;;22.50;96.10;;;;;;4961908;28;19926;-67
2022/09/11 14:19:45;;;;;;;;;;;22.40;96.60;;;;;;4969030;28;20282;-67
2022/09/11 14:22:15;;;;;;;;;;;22.40;96.10;;;;;;4967822;28;20009;-67
2022/09/11 14:24:50;;;;;;;;;;;22.30;97.40;;;;;;4962844;28;19930;-68
2022/09/11 14:27:36;;;;;;;;;;;22.70;96.90;;;;;;4963681;28;19926;-67
2022/09/11 14:30:18;;;;;;;;;;;23.20;96.10;;;;;;4963716;28;19926;-67